ADDS METAR Data INFO
IDs: Format: Raw Decoded Include TAF

Data at: 0837 UTC 21 Oct 2017

KTRI 210753Z COR 00000KT 10SM FEW250 07/07 A3026 RMK AO2 SLP230 T00670067
KTRI 210653Z 00000KT 10SM FEW250 07/07 A3026 RMK AO2 SLP231 T00670067
KTRI 210553Z 00000KT 9SM SCT250 07/07 A3026 RMK AO2 SLP230 T00720072 10161 20072 56002
KTRI 210453Z 00000KT 10SM SCT250 08/08 A3026 RMK AO2 SLP232 T00780078 402500039
KTRI 210353Z 00000KT 10SM SCT250 10/09 A3026 RMK AO2 SLP232 T01000094
KTRI 210253Z 00000KT 10SM FEW250 10/09 A3026 RMK AO2 SLP235 T01000089 53012
KTRI 210153Z 00000KT 10SM SCT250 11/09 A3025 RMK AO2 SLP233 T01060094
KTRI 210053Z 00000KT 10SM SCT250 12/10 A3024 RMK AO2 SLP229 T01220100
KTRI 202353Z 00000KT 10SM SCT250 14/10 A3023 RMK AO2 SLP226 T01390100 10250 20139 55001
KTRI 202253Z 00000KT 10SM SCT250 18/10 A3022 RMK AO2 SLP222 T01830100
KTRI 202153Z 00000KT 10SM FEW250 23/09 A3023 RMK AO2 SLP221 T02280089
KTRI 202053Z 00000KT 10SM FEW250 24/08 A3023 RMK AO2 SLP221 T02390083 56019
KTRI 201953Z VRB03KT 10SM SCT250 24/08 A3025 RMK AO2 SLP227 T02390078
KTRI 201853Z 00000KT 10SM SCT250 23/08 A3026 RMK AO2 SLP231 T02280078
KTRI 201753Z 36004KT 10SM CLR 22/08 A3029 RMK AO2 SLP241 T02220078 10222 20044 58024
KTRI 201653Z 00000KT 10SM CLR 20/08 A3033 RMK AO2 SLP255 T02000083
KTRI 201553Z 00000KT 10SM CLR 18/09 A3035 RMK AO2 SLP263 T01780094
KTRI 201453Z 00000KT 10SM FEW250 14/09 A3036 RMK AO2 SLP271 T01440094 50006
KTRI 201353Z 00000KT 10SM CLR 11/08 A3037 RMK AO2 SLP272 T01060083
KTRI 201253Z 00000KT 10SM FEW250 07/07 A3036 RMK AO2 SLP273 T00720072
KTRI 201153Z 00000KT 6SM BR FEW150 FEW250 04/04 A3035 RMK AO2 SLP268 T00440044 10067 20039 53014
KTRI 201053Z 00000KT 6SM BR CLR 04/04 A3033 RMK AO2 SLP258 T00440044
KTRI 200953Z 00000KT 9SM CLR 05/05 A3031 RMK AO2 SLP250 T00500050
KTRI 200853Z 00000KT 9SM CLR 05/05 A3030 RMK AO2 SLP247 T00500050 53001
KTRI 200753Z 00000KT 10SM CLR 06/06 A3030 RMK AO2 SLP247 T00560056
KTRI 200653Z 00000KT 10SM CLR 06/06 A3030 RMK AO2 SLP247 T00610061
KTRI 200553Z 00000KT 10SM CLR 06/06 A3030 RMK AO2 SLP247 T00610061 10128 20061 51002
KTRI 200453Z 00000KT 10SM CLR 07/07 A3030 RMK AO2 SLP248 T00720067 402220033
KTRI 200353Z 00000KT 10SM CLR 08/07 A3030 RMK AO2 SLP247 T00830072
KTRI 200253Z 00000KT 10SM CLR 09/08 A3029 RMK AO2 SLP247 T00890078 52006
KTRI 200153Z 00000KT 10SM CLR 10/08 A3029 RMK AO2 SLP245 T01000078
KTRI 200053Z 00000KT 10SM CLR 12/08 A3028 RMK AO2 SLP245 T01170083
KTRI 192353Z 00000KT 10SM CLR 13/08 A3028 RMK AO2 SLP244 T01280083 10222 20128 53006
KTRI 192253Z 23003KT 10SM CLR 17/08 A3026 RMK AO2 SLP236 T01720078
KTRI 192153Z 25005KT 10SM CLR 21/06 A3025 RMK AO2 SLP231 T02110056
KTRI 192053Z VRB04KT 10SM FEW250 22/07 A3026 RMK AO2 SLP231 T02220067 56020